Terminal Aerodrome Forecast
Issued by NWS Detroit/Pontiac, MI

Home | Current Version | Previous Version | Text Only | Print | Product List | Glossary On
Versions: 1 2 3 4 5 6 7 8 9 10 11 12 13 14 15 16 17 18 19
061
FTUS43 KDTX 122337
TAFFNT
TAF
KFNT 122337Z 1300/1324 32015G25KT P6SM SCT028 BKN040
      TEMPO 1300/1301 3SM BR BKN028 BKN035
     FM130200 32014G24KT P6SM SCT028 BKN040
     FM130700 31011KT P6SM SCT030 BKN045
     FM131600 30012G20KT P6SM BKN040=

USA.gov is the U.S. government's official web portal to all federal, state and local government web resources and services.